Airfield :
LOGIN :

Register | Disclaimer

   EN    FR    IT 

 










Legend :    VFR   Marginal VFR   IFR   Intensive IFR   Very Intensive IFR
Visi :
Ceiling :
>= 8 km
>= 3000ft
5 to 8 km
1000 to 3000 ft
1500m to 5 km
500 to 1000 ft
800 to 1500m
200 to 500 ft
< 800m
< 200 ft
Symbols :   Thunderstorms  Fog  Heavy snow  Heavy precipitations  Wind > 20 kt
SIGMETs :     Misc.  Thunderstorms  Icing  Turbulence  Mountain Waves  Volcanic Ashes






- Airport Elevation : -15 ft
- IATA code : RTM


EHRD - Rotterdam Zestienhoven

CURRENT METAR :
  • 011455Z AUTO 26017KT 220V290 9999 FEW021 BKN025 BKN028 08/05 Q1019 NOSIG

EXPIRED METARs :
  • 011425Z AUTO 26018G28KT 230V300 9999 FEW021 BKN027 OVC031 08/05 Q1019 NOSIG
  • 011355Z AUTO 26018G28KT 230V300 9999 FEW024 BKN030 BKN045 08/05 Q1019 NOSIG
  • 011325Z AUTO 26019KT 230V310 9999 SCT023 OVC027 08/05 Q1019 NOSIG
  • 011255Z AUTO 27018G28KT 230V310 9999 FEW022 BKN026 OVC030 08/05 Q1019 NOSIG
  • 011225Z AUTO 27020KT 240V300 9999 FEW023 BKN028 OVC032 08/04 Q1019 NOSIG

TAF TAF EHRD
Valid from the 01 at 12:00 until the 02 at 18:00 UTC


011120Z 0112/0218 26023G33KT 9999 SCT030
BECMG 0114/0117 27017G27KT
PROB40
TEMPO 0118/0124 5000 SHRA RA BKN015 SCT020CB
BECMG 0123/0202 29013KT 7000 -RADZ BKN012
PROB30
TEMPO 0203/0215 3000 DZRA BKN006
BECMG 0215/0218 25012KT 9999 NSW SCT020



MET'MAP, your aeronautical weather chart ! - Copyright ORBIFLY December 2007 - Disclaimer

ORBIFLY MET'MAP TEAM :

Programming & Development : Alexandra Zaïnal
Original concept : Baudouin d'Aumeries
Technical & hardware support : Manuel Goepfert
Assistance : Marc-Olivier Méhu




SOURCES & CREDITS :

   NOAA